Time;durP1;ratioP1;P1;durP2;ratioP2;P2;SDS_P1;SDS_P2;PMS_P1;PMS_P2;Temp;Humidity;BMP_temperature;BMP_pressure;BME280_temperature;BME280_humidity;BME280_pressure;Samples;Min_cycle;Max_cycle;Signal;HPM_P1;HPM_P2
2020/12/24 08:27:56;;;;;;;1.27;0.45;;;18.50;73.70;;;;;;5078025;27;20364;-40
2020/12/24 08:31:10;;;;;;;4.22;0.28;;;18.60;73.70;;;;;;5069386;27;20373;-39
2020/12/24 08:33:35;;;;;;;2.85;0.20;;;18.60;74.10;;;;;;5050780;28;20049;-39
2020/12/24 08:36:14;;;;;;;0.77;0.30;;;18.70;74.10;;;;;;5060621;28;20065;-39
2020/12/24 08:38:39;;;;;;;1.65;0.40;;;18.60;74.00;;;;;;5050972;28;20085;-51
2020/12/24 08:41:05;;;;;;;1.33;0.30;;;18.70;73.90;;;;;;5060760;28;20481;-59
2020/12/24 08:43:31;;;;;;;2.53;0.30;;;18.70;73.60;;;;;;5060858;28;20057;-38
2020/12/24 08:45:57;;;;;;;0.50;0.20;;;18.80;73.40;;;;;;5063145;28;20041;-40
2020/12/24 08:48:32;;;;;;;1.83;0.20;;;18.80;73.30;;;;;;5065201;28;20515;-40
2020/12/24 08:50:58;;;;;;;1.63;0.45;;;18.80;73.00;;;;;;5064026;28;20076;-41
2020/12/24 08:53:28;;;;;;;0.28;0.20;;;18.80;73.00;;;;;;5061591;28;21547;-41
2020/12/24 08:55:54;;;;;;;1.17;0.40;;;18.80;73.10;;;;;;5040510;28;20052;-41
2020/12/24 08:58:20;;;;;;;1.27;0.40;;;18.90;73.10;;;;;;5059966;28;20048;-41
2020/12/24 09:00:45;;;;;;;1.10;0.45;;;18.80;73.00;;;;;;5063217;28;20039;-40
2020/12/24 09:03:24;;;;;;;1.05;0.20;;;18.90;73.00;;;;;;5063614;28;20041;-40
2020/12/24 09:05:50;;;;;;;0.30;0.20;;;18.90;73.80;;;;;;5064315;28;20123;-40
2020/12/24 09:08:27;;;;;;;0.50;0.20;;;18.90;72.90;;;;;;5061394;28;20183;-40
2020/12/24 09:10:54;;;;;;;0.77;0.30;;;18.90;72.80;;;;;;5061995;28;20044;-41
2020/12/24 09:13:19;;;;;;;1.00;0.30;;;18.90;72.80;;;;;;5061884;28;20059;-41
2020/12/24 09:15:45;;;;;;;0.30;0.20;;;18.90;72.70;;;;;;5060577;28;20049;-41
2020/12/24 09:18:10;;;;;;;0.43;0.28;;;18.90;72.70;;;;;;5062880;28;20134;-40
2020/12/24 09:20:37;;;;;;;0.32;0.20;;;19.00;72.70;;;;;;5058912;28;20040;-45
2020/12/24 09:23:11;;;;;;;0.43;0.20;;;19.00;72.40;;;;;;5059953;28;20045;-40
2020/12/24 09:25:41;;;;;;;0.70;0.25;;;19.00;72.40;;;;;;5061195;28;20111;-41
2020/12/24 09:28:23;;;;;;;0.45;0.20;;;19.00;72.20;;;;;;5058972;28;20210;-43
2020/12/24 09:30:49;;;;;;;0.55;0.30;;;19.00;72.00;;;;;;5060779;28;20089;-40
2020/12/24 09:33:15;;;;;;;0.40;0.40;;;19.00;72.00;;;;;;5063682;28;20131;-40
2020/12/24 09:35:41;;;;;;;0.50;0.20;;;19.00;72.00;;;;;;5062297;28;20179;-41
2020/12/24 09:38:06;;;;;;;0.20;0.17;;;19.00;72.10;;;;;;5058724;28;20083;-40
2020/12/24 09:40:32;;;;;;;0.70;0.22;;;19.00;72.10;;;;;;5057324;28;20045;-41
2020/12/24 09:42:57;;;;;;;0.43;0.10;;;19.00;72.10;;;;;;5049174;28;20045;-40
2020/12/24 09:45:23;;;;;;;1.33;0.30;;;19.00;72.10;;;;;;5050591;28;20040;-41
2020/12/24 09:47:49;;;;;;;0.43;0.20;;;19.00;72.10;;;;;;5048553;28;20041;-41
2020/12/24 09:50:15;;;;;;;0.60;0.20;;;19.00;72.00;;;;;;5048024;28;20098;-40
2020/12/24 09:52:40;;;;;;;0.57;0.20;;;19.00;71.70;;;;;;5046367;28;20064;-40
2020/12/24 09:55:06;;;;;;;0.98;0.20;;;19.00;72.50;;;;;;5049621;28;20064;-41
2020/12/24 09:57:33;;;;;;;1.80;0.30;;;19.00;71.60;;;;;;5046615;28;20048;-39
2020/12/24 09:59:59;;;;;;;0.95;0.40;;;19.10;71.70;;;;;;5048617;28;20041;-41
2020/12/24 10:02:26;;;;;;;1.05;0.65;;;19.00;71.70;;;;;;5044457;28;20032;-41
2020/12/24 10:04:55;;;;;;;1.25;0.30;;;19.00;71.70;;;;;;5047050;28;20053;-40
2020/12/24 10:07:24;;;;;;;0.40;0.20;;;19.00;72.50;;;;;;5048870;28;20401;-40
2020/12/24 10:09:53;;;;;;;0.82;0.30;;;19.00;72.60;;;;;;5045166;28;20044;-42
2020/12/24 10:12:22;;;;;;;0.15;0.10;;;19.10;71.80;;;;;;5047550;28;20048;-44
2020/12/24 10:14:48;;;;;;;0.60;0.40;;;19.00;71.70;;;;;;5047726;28;20063;-40
2020/12/24 10:17:15;;;;;;;0.60;0.30;;;19.00;71.80;;;;;;5048687;28;20420;-41
2020/12/24 10:19:43;;;;;;;2.10;0.20;;;19.00;71.80;;;;;;5046176;28;20033;-40
2020/12/24 10:22:09;;;;;;;0.47;0.17;;;19.00;71.80;;;;;;5044639;28;20104;-47
2020/12/24 10:24:35;;;;;;;1.92;0.40;;;19.00;71.90;;;;;;5045855;28;20564;-41
2020/12/24 10:27:00;;;;;;;0.43;0.20;;;19.00;71.90;;;;;;5047310;28;20135;-40
2020/12/24 10:29:26;;;;;;;0.45;0.20;;;19.00;71.90;;;;;;5048290;28;20076;-41
2020/12/24 10:31:52;;;;;;;2.28;0.22;;;19.00;71.80;;;;;;5046961;28;20047;-40
2020/12/24 10:34:18;;;;;;;0.47;0.20;;;19.00;71.80;;;;;;5043920;28;20045;-41
2020/12/24 10:36:43;;;;;;;0.63;0.20;;;19.00;71.70;;;;;;5046899;28;20041;-41
2020/12/24 10:39:09;;;;;;;0.40;0.10;;;19.00;72.30;;;;;;5048261;28;20567;-40
2020/12/24 10:41:39;;;;;;;0.32;0.30;;;19.00;71.50;;;;;;5046993;28;20053;-41
2020/12/24 10:44:04;;;;;;;0.70;0.17;;;19.00;71.30;;;;;;5040911;28;20485;-40
2020/12/24 10:46:30;;;;;;;4.28;0.30;;;19.10;71.10;;;;;;5046444;28;20115;-41
2020/12/24 10:48:56;;;;;;;0.40;0.17;;;19.10;71.00;;;;;;5043685;28;20493;-40
2020/12/24 10:51:22;;;;;;;0.52;0.20;;;19.10;71.10;;;;;;5046779;28;20425;-40
2020/12/24 10:53:48;;;;;;;0.50;0.20;;;19.10;71.20;;;;;;5043634;28;20179;-41
2020/12/24 10:56:14;;;;;;;0.75;0.20;;;19.10;71.10;;;;;;5047578;28;20159;-41
2020/12/24 10:58:42;;;;;;;0.50;0.20;;;19.10;70.90;;;;;;5044884;28;20041;-40
2020/12/24 11:01:09;;;;;;;2.28;0.20;;;19.10;70.80;;;;;;5047309;28;20048;-41
2020/12/24 11:03:36;;;;;;;0.50;0.20;;;19.10;70.70;;;;;;5048616;28;20078;-38
2020/12/24 11:06:06;;;;;;;0.90;0.30;;;19.10;70.80;;;;;;5046450;28;20048;-40
2020/12/24 11:08:31;;;;;;;3.08;0.50;;;19.10;70.40;;;;;;5043798;28;20053;-40
2020/12/24 11:10:57;;;;;;;2.13;0.35;;;19.10;70.20;;;;;;5045850;28;20055;-41
2020/12/24 11:13:23;;;;;;;4.28;0.40;;;19.20;70.40;;;;;;5047595;28;20063;-40
2020/12/24 11:15:48;;;;;;;0.98;0.15;;;19.10;70.30;;;;;;5045314;28;20045;-41
2020/12/24 11:18:14;;;;;;;7.20;0.40;;;19.10;70.70;;;;;;5044831;28;20041;-39
2020/12/24 11:20:39;;;;;;;4.30;0.60;;;19.10;70.70;;;;;;5041616;28;20122;-40
2020/12/24 11:23:05;;;;;;;7.82;0.50;;;19.20;70.70;;;;;;5042110;28;20086;-41
2020/12/24 11:25:31;;;;;;;12.52;1.25;;;19.20;70.80;;;;;;5041885;28;20120;-44
2020/12/24 11:27:56;;;;;;;16.10;1.05;;;19.20;70.70;;;;;;5046677;28;20052;-44
2020/12/24 11:30:22;;;;;;;8.38;0.70;;;19.20;70.70;;;;;;5045330;28;20068;-45
2020/12/24 11:32:47;;;;;;;5.05;0.88;;;19.20;71.00;;;;;;5044755;28;20033;-44
2020/12/24 11:35:13;;;;;;;17.92;1.23;;;19.20;70.80;;;;;;5045038;28;20080;-40
2020/12/24 11:37:38;;;;;;;7.68;0.93;;;19.20;70.70;;;;;;5044651;28;20041;-40
2020/12/24 11:40:04;;;;;;;5.82;0.60;;;19.20;70.70;;;;;;5044952;28;20127;-40
2020/12/24 11:42:32;;;;;;;3.17;1.13;;;19.20;70.80;;;;;;5044869;28;20041;-39
2020/12/24 11:44:57;;;;;;;3.75;0.90;;;19.30;71.00;;;;;;5046129;28;20102;-39
2020/12/24 11:47:23;;;;;;;11.40;0.68;;;19.30;70.90;;;;;;5045007;28;20120;-39
2020/12/24 11:49:48;;;;;;;0.85;0.50;;;19.30;71.30;;;;;;5038469;28;20081;-39
2020/12/24 11:52:14;;;;;;;3.60;0.70;;;19.30;70.80;;;;;;5046590;28;20538;-40
2020/12/24 11:54:40;;;;;;;3.13;0.95;;;19.30;71.20;;;;;;5045773;28;20048;-40
2020/12/24 11:57:05;;;;;;;8.75;1.05;;;19.30;71.80;;;;;;5044858;28;20118;-40
2020/12/24 11:59:31;;;;;;;4.85;1.13;;;19.30;72.20;;;;;;5022216;28;20061;-39
2020/12/24 12:01:56;;;;;;;17.42;3.30;;;19.30;71.80;;;;;;5036450;28;20040;-39
2020/12/24 12:04:22;;;;;;;52.90;11.35;;;19.30;73.00;;;;;;5046533;28;20447;-41
2020/12/24 12:06:50;;;;;;;16.45;4.00;;;19.30;72.20;;;;;;5042538;28;20060;-41
2020/12/24 12:09:18;;;;;;;57.70;13.25;;;19.30;71.30;;;;;;4692084;28;10000568;-40
2020/12/24 12:11:45;;;;;;;40.13;8.77;;;19.30;71.70;;;;;;5042125;28;20048;-39
2020/12/24 12:14:11;;;;;;;36.35;9.52;;;19.30;70.90;;;;;;5039030;28;20045;-40
2020/12/24 12:16:37;;;;;;;29.60;8.32;;;19.30;70.60;;;;;;5030150;28;20438;-40
2020/12/24 12:19:03;;;;;;;33.88;9.13;;;19.30;70.40;;;;;;5033794;28;20083;-39
2020/12/24 12:21:28;;;;;;;37.53;9.80;;;19.30;70.90;;;;;;5041737;28;20077;-39
2020/12/24 12:23:54;;;;;;;33.05;9.40;;;19.40;71.10;;;;;;5044996;28;20048;-41
2020/12/24 12:26:19;;;;;;;33.13;7.93;;;19.40;70.90;;;;;;5041378;28;20091;-39
2020/12/24 12:28:46;;;;;;;25.73;8.02;;;19.40;71.00;;;;;;5039638;28;20041;-38
2020/12/24 12:31:19;;;;;;;33.30;8.55;;;19.40;70.80;;;;;;5041706;28;20521;-43
2020/12/24 12:33:45;;;;;;;29.35;7.95;;;19.40;71.00;;;;;;5042826;28;20036;-40
2020/12/24 12:36:11;;;;;;;25.50;8.10;;;19.50;71.00;;;;;;5041829;28;20154;-40
2020/12/24 12:38:37;;;;;;;22.85;7.35;;;19.50;71.80;;;;;;5041276;28;20025;-41
2020/12/24 12:41:02;;;;;;;25.33;7.38;;;19.50;71.00;;;;;;5043221;28;20040;-40
2020/12/24 12:43:28;;;;;;;19.77;6.18;;;19.50;70.60;;;;;;5041897;28;20489;-40
2020/12/24 12:45:54;;;;;;;20.52;6.82;;;19.50;70.40;;;;;;5041810;28;20203;-40
2020/12/24 12:48:19;;;;;;;19.70;6.30;;;19.50;69.70;;;;;;5045521;28;20036;-39
2020/12/24 12:50:45;;;;;;;18.70;6.30;;;19.50;69.60;;;;;;5046233;28;20033;-39
2020/12/24 12:53:10;;;;;;;20.58;6.35;;;19.50;69.70;;;;;;5045873;28;20029;-39
2020/12/24 12:55:36;;;;;;;17.70;6.38;;;19.50;69.80;;;;;;5044918;28;20056;-39
2020/12/24 12:58:01;;;;;;;18.92;6.68;;;19.60;69.70;;;;;;5046512;28;20033;-39
2020/12/24 13:00:27;;;;;;;23.05;5.70;;;19.60;69.60;;;;;;5037679;28;20049;-39
2020/12/24 13:02:52;;;;;;;17.10;5.93;;;19.60;69.70;;;;;;5047177;28;20103;-39
2020/12/24 13:05:18;;;;;;;16.95;5.88;;;19.60;69.60;;;;;;5046245;28;20531;-39
2020/12/24 13:07:44;;;;;;;16.98;5.88;;;19.60;69.60;;;;;;5043959;28;20045;-38
2020/12/24 13:10:09;;;;;;;13.88;5.72;;;19.60;69.60;;;;;;5045980;28;20124;-39
2020/12/24 13:12:35;;;;;;;14.77;5.22;;;19.60;69.40;;;;;;5045334;28;20040;-40
2020/12/24 13:15:00;;;;;;;16.00;5.40;;;19.60;69.40;;;;;;5048446;28;20037;-38
2020/12/24 13:17:26;;;;;;;17.15;5.10;;;19.70;69.40;;;;;;5046870;28;20041;-39
2020/12/24 13:19:53;;;;;;;13.38;4.57;;;19.70;70.20;;;;;;5032900;28;20137;-39
2020/12/24 13:22:18;;;;;;;12.77;5.07;;;19.70;69.30;;;;;;5026366;28;20410;-39
2020/12/24 13:24:45;;;;;;;11.40;4.85;;;19.60;69.40;;;;;;5050136;28;20516;-39
2020/12/24 13:27:10;;;;;;;12.55;4.90;;;19.60;69.40;;;;;;5050991;28;20043;-38
2020/12/24 13:29:36;;;;;;;17.80;4.85;;;19.60;69.50;;;;;;5049328;28;20045;-43
2020/12/24 13:32:02;;;;;;;10.32;4.22;;;19.50;69.50;;;;;;5046713;28;20048;-39
2020/12/24 13:34:27;;;;;;;15.48;4.43;;;19.60;69.60;;;;;;5047570;28;20071;-38
2020/12/24 13:36:53;;;;;;;9.57;4.05;;;19.50;69.50;;;;;;5048891;28;20049;-38
2020/12/24 13:39:18;;;;;;;11.30;4.32;;;19.60;70.40;;;;;;5050930;28;20060;-40
2020/12/24 13:41:51;;;;;;;12.00;4.68;;;19.60;69.70;;;;;;5048206;28;20033;-39
2020/12/24 13:44:17;;;;;;;16.10;4.75;;;19.60;69.40;;;;;;5049205;28;20089;-39
2020/12/24 13:46:49;;;;;;;14.00;3.72;;;19.60;69.40;;;;;;5028482;28;20050;-39
2020/12/24 13:49:15;;;;;;;7.30;3.40;;;19.60;69.50;;;;;;5036635;28;20041;-39
2020/12/24 13:51:41;;;;;;;7.65;3.40;;;19.60;69.20;;;;;;5045691;28;20037;-39
2020/12/24 13:54:07;;;;;;;18.02;3.85;;;19.60;69.90;;;;;;5050384;28;20679;-40
2020/12/24 13:56:32;;;;;;;7.03;3.05;;;19.60;69.40;;;;;;5029568;28;20087;-44
2020/12/24 13:58:58;;;;;;;8.68;3.13;;;19.70;69.20;;;;;;5044218;28;20136;-40
2020/12/24 14:01:23;;;;;;;7.20;3.20;;;19.70;69.40;;;;;;5043584;28;20037;-40
2020/12/24 14:03:49;;;;;;;7.82;2.90;;;19.70;69.80;;;;;;5027191;28;20042;-43
2020/12/24 14:06:14;;;;;;;8.38;2.90;;;19.70;70.40;;;;;;5038855;28;20037;-41
2020/12/24 14:08:40;;;;;;;14.95;3.25;;;19.70;70.40;;;;;;5048678;28;20472;-40
2020/12/24 14:11:06;;;;;;;8.82;3.17;;;19.70;70.70;;;;;;5048268;28;20472;-41
2020/12/24 14:13:32;;;;;;;14.43;2.97;;;19.80;71.00;;;;;;5046864;28;20053;-38
2020/12/24 14:15:58;;;;;;;7.50;3.63;;;19.80;71.30;;;;;;5046880;28;20037;-43
2020/12/24 14:18:24;;;;;;;9.65;3.38;;;19.80;72.30;;;;;;5049672;28;20574;-41
2020/12/24 14:20:50;;;;;;;24.42;3.58;;;19.70;72.00;;;;;;5048941;28;20041;-40
2020/12/24 14:23:15;;;;;;;20.60;3.95;;;19.70;72.60;;;;;;5048454;28;20041;-37
2020/12/24 14:25:41;;;;;;;12.27;3.22;;;19.70;71.50;;;;;;5047382;28;20037;-38
2020/12/24 14:28:07;;;;;;;12.43;2.80;;;19.70;71.60;;;;;;5046878;28;20136;-40
2020/12/24 14:30:33;;;;;;;13.00;2.92;;;19.60;70.80;;;;;;5049320;28;20110;-40
2020/12/24 14:32:58;;;;;;;26.88;3.65;;;19.60;70.00;;;;;;5040272;28;20072;-41
2020/12/24 14:35:24;;;;;;;15.35;3.30;;;19.60;69.30;;;;;;5048121;28;20079;-39
2020/12/24 14:37:49;;;;;;;20.52;3.17;;;19.60;69.20;;;;;;5064347;28;20041;-39
2020/12/24 14:40:15;;;;;;;14.95;2.88;;;19.60;69.20;;;;;;5049430;28;20047;-38
2020/12/24 14:42:40;;;;;;;13.70;2.83;;;19.50;69.40;;;;;;5048841;28;20087;-39
2020/12/24 14:45:06;;;;;;;16.90;3.50;;;19.50;69.10;;;;;;5050506;28;20037;-40
2020/12/24 14:47:32;;;;;;;22.50;2.80;;;19.40;69.10;;;;;;5046282;28;20140;-40
2020/12/24 14:49:58;;;;;;;17.95;3.08;;;19.50;69.10;;;;;;5045557;28;20124;-40
2020/12/24 14:52:26;;;;;;;18.45;2.78;;;19.50;69.80;;;;;;5045581;28;20049;-41
2020/12/24 14:54:52;;;;;;;16.45;2.88;;;19.50;69.80;;;;;;5048528;28;20041;-39
2020/12/24 14:57:17;;;;;;;15.65;2.85;;;19.50;70.30;;;;;;5047576;28;20386;-40
2020/12/24 14:59:43;;;;;;;16.77;4.30;;;19.50;71.10;;;;;;5047158;28;20072;-40
2020/12/24 15:02:09;;;;;;;22.83;3.63;;;19.60;71.80;;;;;;5047868;28;20051;-41
2020/12/24 15:04:35;;;;;;;25.75;3.90;;;19.50;72.20;;;;;;5035532;28;20044;-41
2020/12/24 15:07:00;;;;;;;27.27;4.07;;;19.50;72.80;;;;;;5037732;28;20056;-40
2020/12/24 15:09:26;;;;;;;29.20;4.70;;;19.60;73.00;;;;;;5060635;28;20417;-40
2020/12/24 15:11:51;;;;;;;26.95;4.93;;;19.60;73.20;;;;;;5048563;28;20048;-40
2020/12/24 15:14:17;;;;;;;22.85;4.80;;;19.60;73.50;;;;;;5046752;28;20075;-41
2020/12/24 15:16:43;;;;;;;26.00;4.35;;;19.60;73.40;;;;;;5044892;28;20405;-40
2020/12/24 15:19:08;;;;;;;23.42;4.40;;;19.50;72.50;;;;;;5035431;28;20045;-38
2020/12/24 15:21:34;;;;;;;28.23;4.53;;;19.60;71.90;;;;;;5045282;28;20045;-39
2020/12/24 15:23:59;;;;;;;21.40;4.20;;;19.50;72.20;;;;;;5048057;28;20507;-42
2020/12/24 15:26:25;;;;;;;21.75;3.72;;;19.60;71.90;;;;;;5046238;28;20102;-45
2020/12/24 15:29:01;;;;;;;22.60;3.97;;;19.60;71.50;;;;;;5044362;28;20052;-39
2020/12/24 15:31:27;;;;;;;22.77;3.97;;;19.60;71.20;;;;;;5042905;28;20635;-40
2020/12/24 15:33:53;;;;;;;26.50;4.88;;;19.60;71.10;;;;;;5044315;28;20120;-40
2020/12/24 15:36:18;;;;;;;19.60;3.83;;;19.60;71.10;;;;;;5042262;28;20044;-40
2020/12/24 15:38:44;;;;;;;15.95;3.92;;;19.60;71.90;;;;;;5041687;28;20045;-40
2020/12/24 15:41:10;;;;;;;20.80;3.85;;;19.60;70.80;;;;;;5046143;28;20114;-40
2020/12/24 15:43:35;;;;;;;16.25;3.15;;;19.60;70.60;;;;;;5044259;28;20530;-40
2020/12/24 15:46:01;;;;;;;21.25;4.05;;;19.60;70.70;;;;;;5044957;28;20049;-39
2020/12/24 15:48:27;;;;;;;17.88;4.05;;;19.60;70.60;;;;;;5046668;28;20044;-38
2020/12/24 15:50:52;;;;;;;24.20;4.10;;;19.60;70.60;;;;;;5048606;28;20409;-39
2020/12/24 15:53:18;;;;;;;22.65;3.63;;;19.50;70.50;;;;;;5047111;28;20045;-38
2020/12/24 15:55:43;;;;;;;22.23;3.70;;;19.50;70.40;;;;;;5044114;28;20501;-40
2020/12/24 15:58:09;;;;;;;15.15;2.95;;;19.50;71.10;;;;;;5039887;28;20041;-39
2020/12/24 16:00:34;;;;;;;17.45;3.42;;;19.50;70.10;;;;;;5047039;28;20139;-39
2020/12/24 16:03:00;;;;;;;17.20;4.05;;;19.50;70.20;;;;;;5043068;28;20079;-39
2020/12/24 16:05:27;;;;;;;21.50;3.03;;;19.40;70.30;;;;;;5041721;28;20045;-39
2020/12/24 16:07:53;;;;;;;15.10;2.90;;;19.40;70.30;;;;;;5042348;28;20060;-39
2020/12/24 16:10:18;;;;;;;13.70;3.72;;;19.40;70.30;;;;;;5042002;28;20053;-39
2020/12/24 16:12:44;;;;;;;17.48;3.45;;;19.40;70.20;;;;;;5042965;28;20116;-39
2020/12/24 16:15:09;;;;;;;9.75;2.90;;;19.40;70.30;;;;;;5048706;28;20049;-38
2020/12/24 16:17:35;;;;;;;15.25;2.75;;;19.40;70.30;;;;;;5041633;28;20071;-38
2020/12/24 16:20:00;;;;;;;15.57;3.03;;;19.40;70.40;;;;;;5041794;28;20594;-38
2020/12/24 16:22:26;;;;;;;27.33;3.92;;;19.40;70.40;;;;;;5043709;28;20037;-39
2020/12/24 16:24:51;;;;;;;17.17;3.28;;;19.40;70.60;;;;;;5042135;28;20499;-39
2020/12/24 16:27:17;;;;;;;10.65;2.90;;;19.40;70.80;;;;;;5036187;28;20447;-39
2020/12/24 16:29:42;;;;;;;17.85;3.22;;;19.40;70.50;;;;;;5022425;28;20057;-39
2020/12/24 16:32:14;;;;;;;14.25;2.58;;;19.40;71.20;;;;;;5018978;28;20073;-39
2020/12/24 16:34:39;;;;;;;15.13;2.65;;;19.40;70.80;;;;;;5021215;28;20033;-40
2020/12/24 16:37:05;;;;;;;11.13;2.88;;;19.40;71.60;;;;;;5034181;28;20057;-39
2020/12/24 16:39:30;;;;;;;26.23;2.97;;;19.40;72.10;;;;;;5019020;28;20073;-39
2020/12/24 16:41:57;;;;;;;13.57;2.65;;;19.40;72.70;;;;;;5014494;28;20494;-39
2020/12/24 16:44:23;;;;;;;18.33;2.92;;;19.40;73.00;;;;;;5015395;28;20046;-39
2020/12/24 16:46:48;;;;;;;13.15;2.50;;;19.40;73.10;;;;;;5015052;28;20513;-40
2020/12/24 16:49:14;;;;;;;17.48;3.15;;;19.40;73.10;;;;;;5017326;28;20041;-39
2020/12/24 16:51:39;;;;;;;18.98;2.58;;;19.40;73.00;;;;;;5049041;28;20173;-41
2020/12/24 16:54:05;;;;;;;15.32;2.67;;;19.40;72.80;;;;;;5037225;28;20129;-38
2020/12/24 16:56:31;;;;;;;22.70;3.15;;;19.30;72.80;;;;;;5046571;28;20041;-38
2020/12/24 16:58:57;;;;;;;5.90;2.00;;;19.30;72.80;;;;;;5047896;28;20139;-37
2020/12/24 17:01:22;;;;;;;15.25;2.28;;;19.30;72.80;;;;;;5051018;28;20469;-40
2020/12/24 17:03:48;;;;;;;7.97;2.30;;;19.30;73.00;;;;;;5045852;28;20049;-38
2020/12/24 17:06:13;;;;;;;11.02;2.50;;;19.30;73.00;;;;;;5044442;28;20037;-38
2020/12/24 17:08:40;;;;;;;14.68;2.20;;;19.40;73.00;;;;;;5038016;28;20076;-39
2020/12/24 17:11:06;;;;;;;10.30;2.17;;;19.40;72.70;;;;;;5038095;28;20045;-39
2020/12/24 17:13:31;;;;;;;9.52;2.83;;;19.50;72.60;;;;;;5045332;28;20186;-39
2020/12/24 17:15:57;;;;;;;8.25;2.25;;;19.50;72.50;;;;;;5045395;28;20045;-38
2020/12/24 17:18:22;;;;;;;13.15;1.92;;;19.50;72.50;;;;;;5042278;28;20495;-39
2020/12/24 17:20:48;;;;;;;7.72;2.40;;;19.50;72.30;;;;;;5043896;28;20059;-41
2020/12/24 17:23:14;;;;;;;14.98;1.80;;;19.50;72.10;;;;;;5031199;28;20045;-41
2020/12/24 17:25:40;;;;;;;18.27;2.30;;;19.50;72.00;;;;;;5041761;28;20123;-39
2020/12/24 17:28:06;;;;;;;10.95;2.03;;;19.50;71.90;;;;;;5045795;28;20103;-39
2020/12/24 17:30:32;;;;;;;4.38;1.70;;;19.40;71.90;;;;;;5048493;28;20769;-38
2020/12/24 17:32:58;;;;;;;12.45;1.95;;;19.40;71.70;;;;;;5039135;28;20844;-39
2020/12/24 17:35:23;;;;;;;16.55;2.20;;;19.40;71.70;;;;;;5047489;28;20472;-41
2020/12/24 17:37:49;;;;;;;16.98;1.95;;;19.40;71.20;;;;;;5036737;28;20036;-39
2020/12/24 17:40:15;;;;;;;12.05;2.20;;;19.40;71.30;;;;;;5044570;28;20052;-40
2020/12/24 17:42:41;;;;;;;10.43;2.00;;;19.40;71.10;;;;;;5045345;28;20516;-39
2020/12/24 17:45:07;;;;;;;22.77;2.55;;;19.40;71.10;;;;;;5023048;28;20052;-39
2020/12/24 17:47:33;;;;;;;8.38;2.65;;;19.40;71.00;;;;;;5023800;28;20484;-40
2020/12/24 17:49:58;;;;;;;17.63;3.55;;;19.40;70.90;;;;;;5018033;28;20551;-40
2020/12/24 17:52:27;;;;;;;12.70;4.35;;;19.40;70.70;;;;;;5027319;28;20065;-39
2020/12/24 17:54:53;;;;;;;15.00;4.45;;;19.40;70.40;;;;;;5011392;28;20050;-40
2020/12/24 17:57:19;;;;;;;9.98;5.47;;;19.40;70.40;;;;;;5047214;28;20405;-40
2020/12/24 17:59:44;;;;;;;27.20;13.18;;;19.40;70.30;;;;;;4684215;28;9999798;-40
2020/12/24 18:02:10;;;;;;;56.03;35.50;;;19.40;70.00;;;;;;5028948;28;20084;-41
2020/12/24 18:04:35;;;;;;;46.20;28.42;;;19.40;70.70;;;;;;5041551;28;20045;-41
2020/12/24 18:07:01;;;;;;;27.30;18.45;;;19.40;70.30;;;;;;5043548;28;20448;-41
2020/12/24 18:09:26;;;;;;;35.95;21.30;;;19.40;70.00;;;;;;5022548;28;20064;-44
2020/12/24 18:11:52;;;;;;;53.63;34.80;;;19.30;69.90;;;;;;5042913;28;20045;-42
2020/12/24 18:14:17;;;;;;;56.85;34.08;;;19.40;70.60;;;;;;5033051;28;20106;-40
2020/12/24 18:16:43;;;;;;;45.22;25.75;;;19.40;70.40;;;;;;5037459;28;20052;-39
2020/12/24 18:19:09;;;;;;;51.58;29.67;;;19.40;70.10;;;;;;5030565;28;20420;-39
2020/12/24 18:21:34;;;;;;;51.53;31.25;;;19.50;70.30;;;;;;5037745;28;20059;-41
2020/12/24 18:24:00;;;;;;;49.08;26.17;;;19.50;70.30;;;;;;5040579;28;20132;-42
2020/12/24 18:26:26;;;;;;;49.60;25.70;;;19.50;70.00;;;;;;5051147;28;20083;-40
2020/12/24 18:28:51;;;;;;;58.22;33.65;;;19.50;69.80;;;;;;5043972;28;20451;-41
2020/12/24 18:31:17;;;;;;;54.45;28.33;;;19.50;70.40;;;;;;5042818;28;20057;-39
2020/12/24 18:33:43;;;;;;;44.03;27.30;;;19.60;70.00;;;;;;5042549;28;20412;-40
2020/12/24 18:36:09;;;;;;;48.50;28.90;;;19.60;70.00;;;;;;5040787;28;20491;-40
2020/12/24 18:38:35;;;;;;;48.28;29.33;;;19.50;70.10;;;;;;5034899;28;20042;-40
2020/12/24 18:41:01;;;;;;;51.55;27.90;;;19.50;70.80;;;;;;5041691;28;20527;-39
2020/12/24 18:43:26;;;;;;;44.13;26.05;;;19.60;70.90;;;;;;5040811;28;20076;-39
2020/12/24 18:45:52;;;;;;;46.50;28.52;;;19.70;70.20;;;;;;5041579;28;20476;-40
2020/12/24 18:48:18;;;;;;;45.92;27.00;;;19.70;70.20;;;;;;5042571;28;20067;-39
2020/12/24 18:50:45;;;;;;;43.95;26.20;;;19.60;70.10;;;;;;5042094;28;20051;-40
2020/12/24 18:53:11;;;;;;;39.92;25.15;;;19.60;70.30;;;;;;5041087;28;20049;-49
2020/12/24 18:55:37;;;;;;;39.72;24.77;;;19.60;70.40;;;;;;5042276;28;20049;-39
2020/12/24 18:58:03;;;;;;;44.75;25.23;;;19.60;70.50;;;;;;5040990;28;20064;-40
2020/12/24 19:00:28;;;;;;;40.47;25.02;;;19.60;70.50;;;;;;5025821;28;20049;-39
2020/12/24 19:02:54;;;;;;;49.70;23.65;;;19.70;70.90;;;;;;5019344;28;20120;-39
2020/12/24 19:05:19;;;;;;;54.25;25.08;;;19.70;71.00;;;;;;5036942;28;20041;-42
2020/12/24 19:07:45;;;;;;;62.92;24.65;;;19.60;70.80;;;;;;5038695;28;20041;-38
2020/12/24 19:10:11;;;;;;;57.63;23.65;;;19.60;71.00;;;;;;5041984;28;20056;-39
2020/12/24 19:12:37;;;;;;;55.95;23.13;;;19.70;71.40;;;;;;5032026;28;20058;-40
2020/12/24 19:15:03;;;;;;;53.67;22.85;;;19.70;71.20;;;;;;5041324;28;20525;-40
2020/12/24 19:17:29;;;;;;;36.92;19.25;;;19.70;71.10;;;;;;5043102;28;20032;-40
2020/12/24 19:19:54;;;;;;;43.25;19.20;;;19.70;71.50;;;;;;5038951;28;20472;-40
2020/12/24 19:22:20;;;;;;;42.90;18.73;;;19.70;71.50;;;;;;5044009;28;20539;-40
2020/12/24 19:24:46;;;;;;;41.28;18.45;;;19.70;71.40;;;;;;5044196;28;20361;-40
2020/12/24 19:27:12;;;;;;;37.88;16.00;;;19.70;71.20;;;;;;5044712;28;20044;-40
2020/12/24 19:29:38;;;;;;;38.20;18.15;;;19.70;71.10;;;;;;5042219;28;20251;-40
2020/12/24 19:32:04;;;;;;;41.30;16.52;;;19.60;71.00;;;;;;5044606;28;20047;-39
2020/12/24 19:34:29;;;;;;;35.05;14.90;;;19.70;71.10;;;;;;5044618;28;20024;-41
2020/12/24 19:36:55;;;;;;;26.45;12.90;;;19.60;70.80;;;;;;5041366;28;20032;-41
2020/12/24 19:39:21;;;;;;;35.78;13.45;;;19.60;70.70;;;;;;5041094;28;20040;-42
2020/12/24 19:41:47;;;;;;;26.00;12.10;;;19.70;71.20;;;;;;5041466;28;20032;-41
2020/12/24 19:44:12;;;;;;;33.42;12.98;;;19.70;70.50;;;;;;5040730;28;20025;-40
2020/12/24 19:46:38;;;;;;;34.47;13.40;;;19.80;70.40;;;;;;5036936;28;20068;-43
2020/12/24 19:49:04;;;;;;;31.67;11.68;;;19.80;70.40;;;;;;5042473;28;20044;-41
2020/12/24 19:51:29;;;;;;;35.35;12.90;;;19.70;70.50;;;;;;5041589;28;20112;-42
2020/12/24 19:53:55;;;;;;;27.83;13.07;;;19.70;70.80;;;;;;5040747;28;20129;-42
2020/12/24 19:56:20;;;;;;;28.27;12.13;;;19.80;71.10;;;;;;5039461;28;20047;-41
2020/12/24 19:58:46;;;;;;;30.70;11.55;;;19.80;71.20;;;;;;5040081;28;20466;-40
2020/12/24 20:01:12;;;;;;;25.13;12.13;;;19.80;71.00;;;;;;5040221;28;20044;-45
2020/12/24 20:03:45;;;;;;;23.40;11.15;;;19.80;71.20;;;;;;5042898;28;20691;-43
2020/12/24 20:06:12;;;;;;;22.50;10.98;;;19.80;71.60;;;;;;5040705;28;20029;-41
2020/12/24 20:08:39;;;;;;;25.40;11.18;;;19.90;71.60;;;;;;5041820;28;20057;-41
2020/12/24 20:11:04;;;;;;;26.88;11.55;;;19.90;72.10;;;;;;5042100;28;20041;-42
2020/12/24 20:13:31;;;;;;;26.17;10.95;;;19.90;71.80;;;;;;5042021;28;20029;-41
2020/12/24 20:16:00;;;;;;;33.03;10.48;;;19.90;71.90;;;;;;5040038;28;20041;-42
2020/12/24 20:18:26;;;;;;;19.73;9.98;;;20.00;72.10;;;;;;5041084;28;20447;-41
2020/12/24 20:20:51;;;;;;;25.65;9.55;;;20.00;71.70;;;;;;5037072;28;20036;-41
2020/12/24 20:23:17;;;;;;;30.15;9.73;;;20.00;71.50;;;;;;5040582;28;20032;-41
2020/12/24 20:25:42;;;;;;;24.65;10.02;;;20.10;71.70;;;;;;5043581;28;20040;-41
2020/12/24 20:28:08;;;;;;;26.08;9.20;;;20.10;71.90;;;;;;5045899;28;20035;-40
2020/12/24 20:30:33;;;;;;;22.38;8.43;;;20.10;71.70;;;;;;5044672;28;20421;-43
2020/12/24 20:32:59;;;;;;;18.52;8.75;;;20.10;71.70;;;;;;5046283;28;20040;-41
2020/12/24 20:35:25;;;;;;;24.42;7.90;;;20.20;71.70;;;;;;5045035;28;20488;-41
2020/12/24 20:37:50;;;;;;;26.85;8.27;;;20.20;71.90;;;;;;5043123;28;20021;-41
2020/12/24 20:40:16;;;;;;;29.17;8.73;;;20.20;72.10;;;;;;5045349;28;20132;-41
2020/12/24 20:42:42;;;;;;;18.05;7.40;;;20.20;72.40;;;;;;5045053;28;20655;-41
2020/12/24 20:45:07;;;;;;;20.23;7.68;;;20.20;72.20;;;;;;5044731;28;20055;-41
2020/12/24 20:47:33;;;;;;;17.67;7.75;;;20.10;72.10;;;;;;5045185;28;20428;-40
2020/12/24 20:50:04;;;;;;;24.23;7.15;;;20.20;72.70;;;;;;5043811;28;20033;-40
2020/12/24 20:52:30;;;;;;;16.77;6.30;;;20.30;72.20;;;;;;5041255;28;20090;-40
2020/12/24 20:54:55;;;;;;;17.83;7.93;;;20.30;72.50;;;;;;5045025;28;20575;-41
2020/12/24 20:57:21;;;;;;;26.10;7.78;;;20.30;71.90;;;;;;5046291;28;20032;-41
2020/12/24 20:59:47;;;;;;;16.08;7.00;;;20.40;72.40;;;;;;5044435;28;20029;-42